sensor_id;sensor_type;location;lat;lon;timestamp;pressure;altitude;pressure_sealevel;temperature;humidity
70976;BME280;58635;51.198;6.010;2023-04-05T00:00:18;102256.03;;;8.73;45.57
70976;BME280;58635;51.198;6.010;2023-04-05T00:02:44;102255.53;;;8.69;45.65
70976;BME280;58635;51.198;6.010;2023-04-05T00:05:10;102246.31;;;8.67;45.76
70976;BME280;58635;51.198;6.010;2023-04-05T00:07:36;102250.94;;;8.63;45.73
70976;BME280;58635;51.198;6.010;2023-04-05T00:10:03;102248.50;;;8.62;45.35
70976;BME280;58635;51.198;6.010;2023-04-05T00:12:28;102244.47;;;8.59;45.51
70976;BME280;58635;51.198;6.010;2023-04-05T00:14:53;102245.56;;;8.57;45.62
70976;BME280;58635;51.198;6.010;2023-04-05T00:17:19;102242.31;;;8.55;45.43
70976;BME280;58635;51.198;6.010;2023-04-05T00:19:45;102237.44;;;8.52;45.50
70976;BME280;58635;51.198;6.010;2023-04-05T00:22:15;102237.72;;;8.48;45.16
70976;BME280;58635;51.198;6.010;2023-04-05T00:24:49;102236.53;;;8.43;45.01
70976;BME280;58635;51.198;6.010;2023-04-05T00:27:15;102234.38;;;8.38;45.07
70976;BME280;58635;51.198;6.010;2023-04-05T00:29:40;102233.06;;;8.34;45.15
70976;BME280;58635;51.198;6.010;2023-04-05T00:32:05;102231.41;;;8.33;45.31
70976;BME280;58635;51.198;6.010;2023-04-05T00:34:31;102226.38;;;8.32;45.89
70976;BME280;58635;51.198;6.010;2023-04-05T00:36:58;102223.97;;;8.30;45.42
70976;BME280;58635;51.198;6.010;2023-04-05T00:39:23;102229.38;;;8.27;45.42
70976;BME280;58635;51.198;6.010;2023-04-05T00:41:48;102229.53;;;8.26;45.37
70976;BME280;58635;51.198;6.010;2023-04-05T00:44:14;102221.28;;;8.22;45.44
70976;BME280;58635;51.198;6.010;2023-04-05T00:46:40;102227.38;;;8.21;45.20
70976;BME280;58635;51.198;6.010;2023-04-05T00:49:06;102221.56;;;8.19;45.28
70976;BME280;58635;51.198;6.010;2023-04-05T00:51:32;102222.63;;;8.16;45.49
70976;BME280;58635;51.198;6.010;2023-04-05T00:53:59;102218.44;;;8.15;45.49
70976;BME280;58635;51.198;6.010;2023-04-05T00:56:25;102215.06;;;8.15;45.51
70976;BME280;58635;51.198;6.010;2023-04-05T00:58:50;102216.00;;;8.14;45.49
70976;BME280;58635;51.198;6.010;2023-04-05T01:01:18;102206.66;;;8.13;45.47
70976;BME280;58635;51.198;6.010;2023-04-05T01:03:49;102208.56;;;8.11;45.78
70976;BME280;58635;51.198;6.010;2023-04-05T01:06:45;102208.06;;;8.07;45.65
70976;BME280;58635;51.198;6.010;2023-04-05T01:12:05;102197.78;;;7.98;46.13
70976;BME280;58635;51.198;6.010;2023-04-05T01:14:31;102214.34;;;7.95;46.29
70976;BME280;58635;51.198;6.010;2023-04-05T01:16:57;102216.34;;;7.91;46.52
70976;BME280;58635;51.198;6.010;2023-04-05T01:19:27;102202.00;;;7.89;46.52
70976;BME280;58635;51.198;6.010;2023-04-05T01:27:06;102202.03;;;7.79;46.56
70976;BME280;58635;51.198;6.010;2023-04-05T01:32:10;102194.06;;;7.73;46.97
70976;BME280;58635;51.198;6.010;2023-04-05T01:34:49;102196.91;;;7.70;46.77
70976;BME280;58635;51.198;6.010;2023-04-05T01:37:19;102198.81;;;7.68;47.14
70976;BME280;58635;51.198;6.010;2023-04-05T01:39:45;102200.84;;;7.64;46.89
70976;BME280;58635;51.198;6.010;2023-04-05T01:42:16;102196.78;;;7.61;47.17
70976;BME280;58635;51.198;6.010;2023-04-05T01:44:41;102196.94;;;7.60;47.09
70976;BME280;58635;51.198;6.010;2023-04-05T01:47:06;102198.16;;;7.56;47.22
70976;BME280;58635;51.198;6.010;2023-04-05T01:49:32;102199.25;;;7.53;47.16
70976;BME280;58635;51.198;6.010;2023-04-05T01:51:57;102200.34;;;7.51;47.34
70976;BME280;58635;51.198;6.010;2023-04-05T01:54:23;102192.75;;;7.49;47.45
70976;BME280;58635;51.198;6.010;2023-04-05T01:56:48;102199.00;;;7.47;47.46
70976;BME280;58635;51.198;6.010;2023-04-05T01:59:13;102186.25;;;7.45;47.33
70976;BME280;58635;51.198;6.010;2023-04-05T02:01:39;102188.97;;;7.44;47.76
70976;BME280;58635;51.198;6.010;2023-04-05T02:04:04;102201.16;;;7.42;47.25
70976;BME280;58635;51.198;6.010;2023-04-05T02:06:30;102196.44;;;7.37;47.25
70976;BME280;58635;51.198;6.010;2023-04-05T02:08:56;102189.09;;;7.32;47.30
70976;BME280;58635;51.198;6.010;2023-04-05T02:11:21;102191.81;;;7.31;47.40
70976;BME280;58635;51.198;6.010;2023-04-05T02:13:47;102183.56;;;7.27;47.52
70976;BME280;58635;51.198;6.010;2023-04-05T02:16:12;102181.13;;;7.26;47.53
70976;BME280;58635;51.198;6.010;2023-04-05T02:18:37;102185.75;;;7.22;47.43
70976;BME280;58635;51.198;6.010;2023-04-05T02:21:05;102188.59;;;7.19;47.47
70976;BME280;58635;51.198;6.010;2023-04-05T02:23:31;102170.72;;;7.18;47.72
70976;BME280;58635;51.198;6.010;2023-04-05T02:25:57;102173.41;;;7.16;47.98
70976;BME280;58635;51.198;6.010;2023-04-05T02:28:22;102178.72;;;7.15;48.00
70976;BME280;58635;51.198;6.010;2023-04-05T02:30:48;102185.91;;;7.11;47.67
70976;BME280;58635;51.198;6.010;2023-04-05T02:33:13;102174.09;;;7.09;47.93
70976;BME280;58635;51.198;6.010;2023-04-05T02:35:39;102172.47;;;7.08;48.28
70976;BME280;58635;51.198;6.010;2023-04-05T02:38:04;102179.53;;;7.06;48.45
70976;BME280;58635;51.198;6.010;2023-04-05T02:40:30;102181.41;;;7.03;48.20
70976;BME280;58635;51.198;6.010;2023-04-05T02:42:56;102175.59;;;7.01;48.38
70976;BME280;58635;51.198;6.010;2023-04-05T02:45:22;102175.59;;;7.01;48.45
70976;BME280;58635;51.198;6.010;2023-04-05T02:47:47;102176.69;;;6.99;48.44
70976;BME280;58635;51.198;6.010;2023-04-05T02:50:13;102172.47;;;6.98;48.78
70976;BME280;58635;51.198;6.010;2023-04-05T02:52:38;102176.94;;;6.96;48.44
70976;BME280;58635;51.198;6.010;2023-04-05T02:55:05;102178.84;;;6.94;48.89
70976;BME280;58635;51.198;6.010;2023-04-05T02:57:31;102168.69;;;6.92;48.84
70976;BME280;58635;51.198;6.010;2023-04-05T02:59:56;102172.34;;;6.90;49.03
70976;BME280;58635;51.198;6.010;2023-04-05T03:02:21;102171.53;;;6.89;49.32
70976;BME280;58635;51.198;6.010;2023-04-05T03:04:47;102173.44;;;6.87;49.29
70976;BME280;58635;51.198;6.010;2023-04-05T03:07:12;102171.78;;;6.86;49.35
70976;BME280;58635;51.198;6.010;2023-04-05T03:09:44;102165.97;;;6.84;49.00
70976;BME280;58635;51.198;6.010;2023-04-05T03:12:10;102159.06;;;6.85;49.12
70976;BME280;58635;51.198;6.010;2023-04-05T03:14:36;102155.69;;;6.84;49.36
70976;BME280;58635;51.198;6.010;2023-04-05T03:17:02;102156.63;;;6.83;49.54
70976;BME280;58635;51.198;6.010;2023-04-05T03:19:28;102158.53;;;6.81;49.55
70976;BME280;58635;51.198;6.010;2023-04-05T03:21:53;102148.38;;;6.80;49.47
70976;BME280;58635;51.198;6.010;2023-04-05T03:24:18;102160.44;;;6.79;49.52
70976;BME280;58635;51.198;6.010;2023-04-05T03:26:45;102158.94;;;6.77;49.88
70976;BME280;58635;51.198;6.010;2023-04-05T03:29:11;102156.63;;;6.73;49.71
70976;BME280;58635;51.198;6.010;2023-04-05T03:31:37;102158.66;;;6.70;49.76
70976;BME280;58635;51.198;6.010;2023-04-05T03:34:03;102158.81;;;6.68;50.00
70976;BME280;58635;51.198;6.010;2023-04-05T03:36:28;102149.59;;;6.66;50.11
70976;BME280;58635;51.198;6.010;2023-04-05T03:39:10;102148.22;;;6.62;50.15
70976;BME280;58635;51.198;6.010;2023-04-05T03:41:36;102150.41;;;6.57;50.10
70976;BME280;58635;51.198;6.010;2023-04-05T03:44:02;102144.59;;;6.55;49.98
70976;BME280;58635;51.198;6.010;2023-04-05T03:46:27;102139.72;;;6.52;50.23
70976;BME280;58635;51.198;6.010;2023-04-05T03:48:53;102135.50;;;6.51;49.88
70976;BME280;58635;51.198;6.010;2023-04-05T03:51:18;102139.97;;;6.49;50.00
70976;BME280;58635;51.198;6.010;2023-04-05T03:53:44;102144.56;;;6.45;50.12
70976;BME280;58635;51.198;6.010;2023-04-05T03:56:10;102142.25;;;6.42;49.95
70976;BME280;58635;51.198;6.010;2023-04-05T03:58:36;102144.97;;;6.40;50.30
70976;BME280;58635;51.198;6.010;2023-04-05T04:01:01;102140.88;;;6.38;50.22
70976;BME280;58635;51.198;6.010;2023-04-05T04:03:27;102136.81;;;6.35;50.37
70976;BME280;58635;51.198;6.010;2023-04-05T04:05:53;102133.59;;;6.33;50.45
70976;BME280;58635;51.198;6.010;2023-04-05T04:08:19;102131.41;;;6.29;50.14
70976;BME280;58635;51.198;6.010;2023-04-05T04:10:45;102129.09;;;6.26;50.10
70976;BME280;58635;51.198;6.010;2023-04-05T04:13:10;102131.94;;;6.23;50.30
70976;BME280;58635;51.198;6.010;2023-04-05T04:15:36;102130.44;;;6.20;50.14
70976;BME280;58635;51.198;6.010;2023-04-05T04:18:01;102131.53;;;6.18;50.26
70976;BME280;58635;51.198;6.010;2023-04-05T04:20:26;102125.69;;;6.15;50.34
70976;BME280;58635;51.198;6.010;2023-04-05T04:22:52;102126.63;;;6.14;50.08
70976;BME280;58635;51.198;6.010;2023-04-05T04:25:18;102129.34;;;6.13;50.27
70976;BME280;58635;51.198;6.010;2023-04-05T04:27:44;102120.00;;;6.12;50.13
70976;BME280;58635;51.198;6.010;2023-04-05T04:30:14;102124.34;;;6.11;50.47
70976;BME280;58635;51.198;6.010;2023-04-05T04:32:41;102125.41;;;6.09;50.47
70976;BME280;58635;51.198;6.010;2023-04-05T04:35:17;102126.34;;;6.08;50.72
70976;BME280;58635;51.198;6.010;2023-04-05T04:37:50;102130.69;;;6.07;50.73
70976;BME280;58635;51.198;6.010;2023-04-05T04:40:19;102126.72;;;6.03;50.75
70976;BME280;58635;51.198;6.010;2023-04-05T04:42:47;102129.03;;;5.97;51.14
70976;BME280;58635;51.198;6.010;2023-04-05T04:45:17;102130.44;;;5.90;51.29
70976;BME280;58635;51.198;6.010;2023-04-05T04:47:44;102132.59;;;5.84;51.33
70976;BME280;58635;51.198;6.010;2023-04-05T04:50:12;102132.72;;;5.83;51.22
70976;BME280;58635;51.198;6.010;2023-04-05T04:52:38;102127.59;;;5.83;51.15
70976;BME280;58635;51.198;6.010;2023-04-05T04:55:06;102137.19;;;5.81;51.63
70976;BME280;58635;51.198;6.010;2023-04-05T04:57:32;102140.78;;;5.78;51.47
70976;BME280;58635;51.198;6.010;2023-04-05T04:59:57;102139.19;;;5.77;51.40
70976;BME280;58635;51.198;6.010;2023-04-05T05:02:23;102133.38;;;5.75;51.46
70976;BME280;58635;51.198;6.010;2023-04-05T05:04:49;102140.25;;;5.75;51.17
70976;BME280;58635;51.198;6.010;2023-04-05T05:07:15;102143.09;;;5.72;51.28
70976;BME280;58635;51.198;6.010;2023-04-05T05:09:42;102135.38;;;5.72;51.28
70976;BME280;58635;51.198;6.010;2023-04-05T05:12:07;102136.19;;;5.72;51.43
70976;BME280;58635;51.198;6.010;2023-04-05T05:14:33;102132.81;;;5.72;51.18
70976;BME280;58635;51.198;6.010;2023-04-05T05:16:58;102133.88;;;5.69;51.28
70976;BME280;58635;51.198;6.010;2023-04-05T05:19:24;102138.22;;;5.69;50.84
70976;BME280;58635;51.198;6.010;2023-04-05T05:21:49;102143.34;;;5.69;51.02
70976;BME280;58635;51.198;6.010;2023-04-05T05:24:16;102142.41;;;5.70;51.03
70976;BME280;58635;51.198;6.010;2023-04-05T05:26:42;102133.06;;;5.69;51.37
70976;BME280;58635;51.198;6.010;2023-04-05T05:29:07;102139.94;;;5.68;51.09
70976;BME280;58635;51.198;6.010;2023-04-05T05:31:33;102138.91;;;5.71;51.53
70976;BME280;58635;51.198;6.010;2023-04-05T05:33:58;102136.31;;;5.71;51.48
70976;BME280;58635;51.198;6.010;2023-04-05T05:36:23;102135.50;;;5.70;51.00
70976;BME280;58635;51.198;6.010;2023-04-05T05:38:52;102131.88;;;5.73;51.11
70976;BME280;58635;51.198;6.010;2023-04-05T05:41:18;102141.06;;;5.75;51.33
70976;BME280;58635;51.198;6.010;2023-04-05T05:43:43;102141.59;;;5.79;50.97
70976;BME280;58635;51.198;6.010;2023-04-05T05:46:09;102132.72;;;5.83;51.36
70976;BME280;58635;51.198;6.010;2023-04-05T05:48:34;102140.16;;;5.86;51.01
70976;BME280;58635;51.198;6.010;2023-04-05T05:51:01;102136.28;;;5.92;51.00
70976;BME280;58635;51.198;6.010;2023-04-05T05:53:26;102136.72;;;5.97;50.96
70976;BME280;58635;51.198;6.010;2023-04-05T05:55:52;102139.56;;;6.03;50.91
70976;BME280;58635;51.198;6.010;2023-04-05T05:58:17;102133.94;;;6.09;50.88
70976;BME280;58635;51.198;6.010;2023-04-05T06:00:43;102132.88;;;6.22;50.87
70976;BME280;58635;51.198;6.010;2023-04-05T06:03:09;102124.38;;;6.31;50.33
70976;BME280;58635;51.198;6.010;2023-04-05T06:05:35;102133.75;;;6.41;50.46
70976;BME280;58635;51.198;6.010;2023-04-05T06:08:00;102131.19;;;6.51;50.42
70976;BME280;58635;51.198;6.010;2023-04-05T06:10:28;102120.91;;;6.61;50.11
70976;BME280;58635;51.198;6.010;2023-04-05T06:12:53;102120.91;;;6.70;50.01
70976;BME280;58635;51.198;6.010;2023-04-05T06:15:19;102124.16;;;6.82;49.84
70976;BME280;58635;51.198;6.010;2023-04-05T06:17:44;102126.88;;;6.90;49.59
70976;BME280;58635;51.198;6.010;2023-04-05T06:20:10;102120.22;;;6.97;49.36
70976;BME280;58635;51.198;6.010;2023-04-05T06:22:39;102126.31;;;7.06;49.26
70976;BME280;58635;51.198;6.010;2023-04-05T06:25:06;102129.53;;;7.18;48.95
70976;BME280;58635;51.198;6.010;2023-04-05T06:27:32;102122.75;;;7.26;48.93
70976;BME280;58635;51.198;6.010;2023-04-05T06:30:00;102119.38;;;7.36;48.65
70976;BME280;58635;51.198;6.010;2023-04-05T06:32:26;102123.41;;;7.48;48.64
70976;BME280;58635;51.198;6.010;2023-04-05T06:34:51;102122.41;;;7.58;48.57
70976;BME280;58635;51.198;6.010;2023-04-05T06:37:17;102129.69;;;7.73;48.01
70976;BME280;58635;51.198;6.010;2023-04-05T06:39:43;102135.31;;;7.86;47.92
70976;BME280;58635;51.198;6.010;2023-04-05T06:42:08;102132.56;;;7.97;47.71
70976;BME280;58635;51.198;6.010;2023-04-05T06:44:33;102140.91;;;8.09;47.30
70976;BME280;58635;51.198;6.010;2023-04-05T06:46:59;102138.00;;;8.21;47.19
70976;BME280;58635;51.198;6.010;2023-04-05T06:49:24;102132.78;;;8.31;46.71
70976;BME280;58635;51.198;6.010;2023-04-05T06:51:50;102123.25;;;8.41;46.57
70976;BME280;58635;51.198;6.010;2023-04-05T06:54:15;102128.19;;;8.53;46.43
70976;BME280;58635;51.198;6.010;2023-04-05T06:56:40;102125.91;;;8.67;46.39
70976;BME280;58635;51.198;6.010;2023-04-05T06:59:06;102117.66;;;8.82;46.23
70976;BME280;58635;51.198;6.010;2023-04-05T07:01:31;102124.03;;;8.95;45.92
70976;BME280;58635;51.198;6.010;2023-04-05T07:03:57;102129.63;;;9.08;45.53
70976;BME280;58635;51.198;6.010;2023-04-05T07:06:23;102133.88;;;9.18;45.07
70976;BME280;58635;51.198;6.010;2023-04-05T07:08:48;102135.25;;;9.30;44.85
70976;BME280;58635;51.198;6.010;2023-04-05T07:11:13;102137.13;;;9.46;44.62
70976;BME280;58635;51.198;6.010;2023-04-05T07:13:39;102126.69;;;9.55;44.23
70976;BME280;58635;51.198;6.010;2023-04-05T07:16:05;102124.31;;;9.62;44.19
70976;BME280;58635;51.198;6.010;2023-04-05T07:18:31;102130.03;;;9.74;43.96
70976;BME280;58635;51.198;6.010;2023-04-05T07:20:57;102128.47;;;9.89;43.88
70976;BME280;58635;51.198;6.010;2023-04-05T07:23:26;102126.88;;;10.04;43.78
70976;BME280;58635;51.198;6.010;2023-04-05T07:25:53;102128.22;;;10.16;43.64
70976;BME280;58635;51.198;6.010;2023-04-05T07:28:18;102124.88;;;10.24;43.27
70976;BME280;58635;51.198;6.010;2023-04-05T07:30:44;102127.31;;;10.25;43.11
70976;BME280;58635;51.198;6.010;2023-04-05T07:33:09;102128.44;;;10.23;42.92
70976;BME280;58635;51.198;6.010;2023-04-05T07:35:35;102125.84;;;10.23;42.70
70976;BME280;58635;51.198;6.010;2023-04-05T07:38:01;102128.28;;;10.24;42.59
70976;BME280;58635;51.198;6.010;2023-04-05T07:40:26;102130.72;;;10.26;42.08
70976;BME280;58635;51.198;6.010;2023-04-05T07:42:52;102131.19;;;10.30;42.49
70976;BME280;58635;51.198;6.010;2023-04-05T07:45:17;102131.72;;;10.33;42.46
70976;BME280;58635;51.198;6.010;2023-04-05T07:47:43;102138.97;;;10.38;42.56
70976;BME280;58635;51.198;6.010;2023-04-05T07:50:08;102137.38;;;10.45;42.45
70976;BME280;58635;51.198;6.010;2023-04-05T07:52:36;102146.63;;;10.56;42.06
70976;BME280;58635;51.198;6.010;2023-04-05T07:55:01;102138.69;;;10.65;42.05
70976;BME280;58635;51.198;6.010;2023-04-05T07:57:27;102145.19;;;10.77;42.01
70976;BME280;58635;51.198;6.010;2023-04-05T07:59:53;102145.19;;;10.86;41.67
70976;BME280;58635;51.198;6.010;2023-04-05T08:02:19;102147.78;;;10.94;41.71
70976;BME280;58635;51.198;6.010;2023-04-05T08:04:45;102144.03;;;10.96;41.19
70976;BME280;58635;51.198;6.010;2023-04-05T08:07:11;102142.94;;;10.91;40.92
70976;BME280;58635;51.198;6.010;2023-04-05T08:09:36;102148.09;;;10.91;40.92
70976;BME280;58635;51.198;6.010;2023-04-05T08:12:02;102136.78;;;10.92;40.75
70976;BME280;58635;51.198;6.010;2023-04-05T08:14:28;102134.03;;;10.93;40.71
70976;BME280;58635;51.198;6.010;2023-04-05T08:16:53;102138.53;;;10.99;40.65
70976;BME280;58635;51.198;6.010;2023-04-05T08:19:18;102130.94;;;11.06;40.40
70976;BME280;58635;51.198;6.010;2023-04-05T08:21:44;102133.84;;;11.11;40.45
70976;BME280;58635;51.198;6.010;2023-04-05T08:24:09;102134.34;;;11.15;40.19
70976;BME280;58635;51.198;6.010;2023-04-05T08:26:35;102138.84;;;11.12;39.79
70976;BME280;58635;51.198;6.010;2023-04-05T08:29:00;102134.50;;;11.13;39.88
70976;BME280;58635;51.198;6.010;2023-04-05T08:31:26;102135.78;;;11.17;39.67
70976;BME280;58635;51.198;6.010;2023-04-05T08:33:51;102147.13;;;11.16;39.39
70976;BME280;58635;51.198;6.010;2023-04-05T08:36:16;102138.22;;;11.19;39.54
70976;BME280;58635;51.198;6.010;2023-04-05T08:38:42;102129.63;;;11.26;39.52
70976;BME280;58635;51.198;6.010;2023-04-05T08:41:13;102121.50;;;11.37;39.26
70976;BME280;58635;51.198;6.010;2023-04-05T08:43:59;102123.94;;;11.39;38.93
70976;BME280;58635;51.198;6.010;2023-04-05T08:46:29;102130.22;;;11.36;38.97
70976;BME280;58635;51.198;6.010;2023-04-05T08:48:57;102133.16;;;11.33;38.96
70976;BME280;58635;51.198;6.010;2023-04-05T08:51:23;102131.06;;;11.37;39.27
70976;BME280;58635;51.198;6.010;2023-04-05T08:53:51;102127.28;;;11.48;39.11
70976;BME280;58635;51.198;6.010;2023-04-05T08:56:24;102123.53;;;11.58;38.87
70976;BME280;58635;51.198;6.010;2023-04-05T08:59:03;102126.91;;;11.67;39.14
70976;BME280;58635;51.198;6.010;2023-04-05T09:01:30;102129.50;;;11.75;39.29
70976;BME280;58635;51.198;6.010;2023-04-05T09:03:59;102125.25;;;11.82;39.26
70976;BME280;58635;51.198;6.010;2023-04-05T09:06:25;102126.69;;;11.93;39.35
70976;BME280;58635;51.198;6.010;2023-04-05T09:08:55;102123.25;;;12.00;38.94
70976;BME280;58635;51.198;6.010;2023-04-05T09:11:21;102125.31;;;12.05;38.37
70976;BME280;58635;51.198;6.010;2023-04-05T09:13:47;102126.94;;;12.06;38.04
70976;BME280;58635;51.198;6.010;2023-04-05T09:16:13;102125.31;;;12.05;37.46
70976;BME280;58635;51.198;6.010;2023-04-05T09:18:40;102126.13;;;12.06;37.23
70976;BME280;58635;51.198;6.010;2023-04-05T09:21:05;102122.72;;;12.05;36.85
70976;BME280;58635;51.198;6.010;2023-04-05T09:23:34;102123.72;;;12.04;36.66
70976;BME280;58635;51.198;6.010;2023-04-05T09:26:16;102117.72;;;12.04;36.77
70976;BME280;58635;51.198;6.010;2023-04-05T09:28:41;102123.53;;;12.06;36.44
70976;BME280;58635;51.198;6.010;2023-04-05T09:31:07;102129.22;;;12.09;36.29
70976;BME280;58635;51.198;6.010;2023-04-05T09:33:33;102127.06;;;12.13;36.27
70976;BME280;58635;51.198;6.010;2023-04-05T09:35:58;102129.94;;;12.18;36.06
70976;BME280;58635;51.198;6.010;2023-04-05T09:38:44;102117.47;;;12.21;35.93
70976;BME280;58635;51.198;6.010;2023-04-05T09:41:10;102111.31;;;12.22;36.26
70976;BME280;58635;51.198;6.010;2023-04-05T09:43:40;102110.78;;;12.27;36.13
70976;BME280;58635;51.198;6.010;2023-04-05T09:46:15;102114.63;;;12.31;36.06
70976;BME280;58635;51.198;6.010;2023-04-05T09:48:52;102113.31;;;12.35;35.98
70976;BME280;58635;51.198;6.010;2023-04-05T09:51:17;102110.56;;;12.37;35.84
70976;BME280;58635;51.198;6.010;2023-04-05T09:56:28;102106.44;;;12.42;35.17
70976;BME280;58635;51.198;6.010;2023-04-05T09:59:20;102096.56;;;12.46;34.96
70976;BME280;58635;51.198;6.010;2023-04-05T10:01:50;102102.38;;;12.48;34.80
70976;BME280;58635;51.198;6.010;2023-04-05T10:04:18;102090.03;;;12.50;34.52
70976;BME280;58635;51.198;6.010;2023-04-05T10:06:43;102094.88;;;12.53;34.66
70976;BME280;58635;51.198;6.010;2023-04-05T10:09:10;102096.16;;;12.57;34.83
70976;BME280;58635;51.198;6.010;2023-04-05T10:11:37;102093.81;;;12.62;34.71
70976;BME280;58635;51.198;6.010;2023-04-05T10:14:04;102087.28;;;12.66;34.93
70976;BME280;58635;51.198;6.010;2023-04-05T10:16:50;102088.41;;;12.72;34.40
70976;BME280;58635;51.198;6.010;2023-04-05T10:19:26;102082.03;;;12.74;34.53
70976;BME280;58635;51.198;6.010;2023-04-05T10:21:53;102071.66;;;12.74;34.63
70976;BME280;58635;51.198;6.010;2023-04-05T10:24:36;102078.94;;;12.79;34.78
70976;BME280;58635;51.198;6.010;2023-04-05T10:27:17;102074.88;;;12.76;34.56
70976;BME280;58635;51.198;6.010;2023-04-05T10:30:05;102070.16;;;12.80;34.79
70976;BME280;58635;51.198;6.010;2023-04-05T10:33:45;102074.81;;;12.84;34.50
70976;BME280;58635;51.198;6.010;2023-04-05T10:36:18;102067.47;;;12.88;34.53
70976;BME280;58635;51.198;6.010;2023-04-05T10:39:12;102072.97;;;12.93;34.43
70976;BME280;58635;51.198;6.010;2023-04-05T10:41:47;102071.06;;;13.02;34.53
70976;BME280;58635;51.198;6.010;2023-04-05T10:44:14;102072.53;;;13.04;34.23
70976;BME280;58635;51.198;6.010;2023-04-05T10:46:40;102071.34;;;13.07;34.23
70976;BME280;58635;51.198;6.010;2023-04-05T10:51:51;102062.50;;;13.16;34.18
70976;BME280;58635;51.198;6.010;2023-04-05T10:54:18;102062.78;;;13.21;33.95
70976;BME280;58635;51.198;6.010;2023-04-05T10:56:44;102061.44;;;13.25;33.98
70976;BME280;58635;51.198;6.010;2023-04-05T10:59:11;102055.34;;;13.33;33.79
70976;BME280;58635;51.198;6.010;2023-04-05T11:01:38;102053.84;;;13.38;33.55
70976;BME280;58635;51.198;6.010;2023-04-05T11:04:12;102047.91;;;13.44;33.64
70976;BME280;58635;51.198;6.010;2023-04-05T11:06:38;102050.13;;;13.48;33.44
70976;BME280;58635;51.198;6.010;2023-04-05T11:11:40;102037.59;;;13.51;33.19
70976;BME280;58635;51.198;6.010;2023-04-05T11:14:38;102032.84;;;13.55;33.40
70976;BME280;58635;51.198;6.010;2023-04-05T11:17:03;102029.16;;;13.64;33.35
70976;BME280;58635;51.198;6.010;2023-04-05T11:19:52;102027.22;;;13.72;33.01
70976;BME280;58635;51.198;6.010;2023-04-05T11:22:27;102028.88;;;13.73;32.74
70976;BME280;58635;51.198;6.010;2023-04-05T11:24:55;102017.28;;;13.76;32.92
70976;BME280;58635;51.198;6.010;2023-04-05T11:29:56;102028.06;;;13.94;32.60
70976;BME280;58635;51.198;6.010;2023-04-05T11:32:21;102030.97;;;14.06;32.56
70976;BME280;58635;51.198;6.010;2023-04-05T11:35:04;102022.25;;;14.14;32.09
70976;BME280;58635;51.198;6.010;2023-04-05T11:40:30;102009.28;;;14.20;31.86
70976;BME280;58635;51.198;6.010;2023-04-05T11:43:06;102010.34;;;14.26;31.91
70976;BME280;58635;51.198;6.010;2023-04-05T11:45:35;102000.63;;;14.34;32.03
70976;BME280;58635;51.198;6.010;2023-04-05T11:48:12;102005.56;;;14.51;31.83
70976;BME280;58635;51.198;6.010;2023-04-05T11:50:39;101988.44;;;14.63;31.74
70976;BME280;58635;51.198;6.010;2023-04-05T11:53:14;101992.69;;;14.71;31.28
70976;BME280;58635;51.198;6.010;2023-04-05T11:55:45;101995.38;;;14.84;31.40
70976;BME280;58635;51.198;6.010;2023-04-05T11:58:22;101985.44;;;15.01;30.87
70976;BME280;58635;51.198;6.010;2023-04-05T12:01:06;101991.34;;;15.16;30.72
70976;BME280;58635;51.198;6.010;2023-04-05T12:03:33;101986.41;;;15.41;30.80
70976;BME280;58635;51.198;6.010;2023-04-05T12:06:00;101986.13;;;15.70;30.74
70976;BME280;58635;51.198;6.010;2023-04-05T12:11:07;101975.13;;;16.15;29.68
70976;BME280;58635;51.198;6.010;2023-04-05T12:13:33;101966.91;;;16.18;29.49
70976;BME280;58635;51.198;6.010;2023-04-05T12:16:01;101964.88;;;16.20;29.01
70976;BME280;58635;51.198;6.010;2023-04-05T12:18:28;101957.66;;;16.22;29.07
70976;BME280;58635;51.198;6.010;2023-04-05T12:20:54;101957.06;;;16.26;29.05
70976;BME280;58635;51.198;6.010;2023-04-05T12:23:24;101959.84;;;16.38;29.04
70976;BME280;58635;51.198;6.010;2023-04-05T12:25:51;101952.41;;;16.48;28.92
70976;BME280;58635;51.198;6.010;2023-04-05T12:28:17;101955.59;;;16.57;29.06
70976;BME280;58635;51.198;6.010;2023-04-05T12:30:49;101963.63;;;16.62;28.57
70976;BME280;58635;51.198;6.010;2023-04-05T12:33:25;101961.63;;;16.64;28.29
70976;BME280;58635;51.198;6.010;2023-04-05T12:35:51;101959.03;;;16.71;27.98
70976;BME280;58635;51.198;6.010;2023-04-05T12:38:16;101954.78;;;16.83;27.53
70976;BME280;58635;51.198;6.010;2023-04-05T12:40:42;101953.34;;;16.87;27.66
70976;BME280;58635;51.198;6.010;2023-04-05T12:43:08;101953.94;;;16.89;27.47
70976;BME280;58635;51.198;6.010;2023-04-05T12:45:34;101948.91;;;16.94;27.41
70976;BME280;58635;51.198;6.010;2023-04-05T12:48:14;101945.44;;;17.00;27.17
70976;BME280;58635;51.198;6.010;2023-04-05T12:50:44;101941.00;;;17.07;27.09
70976;BME280;58635;51.198;6.010;2023-04-05T12:53:17;101940.75;;;17.15;27.09
70976;BME280;58635;51.198;6.010;2023-04-05T12:55:48;101941.16;;;17.19;26.78
70976;BME280;58635;51.198;6.010;2023-04-05T12:58:15;101937.09;;;17.23;26.59
70976;BME280;58635;51.198;6.010;2023-04-05T13:00:42;101933.84;;;17.28;26.92
70976;BME280;58635;51.198;6.010;2023-04-05T13:03:15;101921.19;;;17.31;26.28
70976;BME280;58635;51.198;6.010;2023-04-05T13:05:42;101923.53;;;17.39;26.49
70976;BME280;58635;51.198;6.010;2023-04-05T13:08:07;101922.50;;;17.47;25.87
70976;BME280;58635;51.198;6.010;2023-04-05T13:10:33;101922.84;;;17.50;25.41
70976;BME280;58635;51.198;6.010;2023-04-05T13:12:58;101924.44;;;17.58;25.35
70976;BME280;58635;51.198;6.010;2023-04-05T13:15:23;101918.94;;;17.66;25.12
70976;BME280;58635;51.198;6.010;2023-04-05T13:17:49;101916.91;;;17.68;24.89
70976;BME280;58635;51.198;6.010;2023-04-05T13:20:16;101912.69;;;17.67;24.64
70976;BME280;58635;51.198;6.010;2023-04-05T13:22:42;101911.50;;;17.63;24.69
70976;BME280;58635;51.198;6.010;2023-04-05T13:25:08;101907.47;;;17.67;25.03